GLO1993 SBFI-SBGL
Flight info
| Callsign | GLO1993 |
|---|---|
| Flight time | 1h 29m |
| Altitude | 35000 |
| Route | KAMIL UZ28 XONUG DCT UREMI UZ42 VUREP |
| Aircraft | B738/M-SDFGIKLORWXY/LB1 |
Departure
| Time | 2026-04-27 14:12 |
|---|---|
| Airport | Cataratas International Airport (SBFI) |
Arrival
| Time | 2026-04-27 15:41 |
|---|---|
| Airport | Rio Galeão – Tom Jobim International Airport (SBGL) |
| Time | Latitude | Longitude | Altitude | Speed | Heading |
|---|---|---|---|---|---|
| 2026-04-27 13:47 | -25.59702 | -54.48852 | 766 ft | 0 kts | 222° |
| 2026-04-27 14:04 | -25.59685 | -54.48834 | 766 ft | 4 kts | 230° |
| 2026-04-27 14:05 | -25.59671 | -54.48809 | 766 ft | 4 kts | 252° |
| 2026-04-27 14:05 | -25.59669 | -54.48783 | 766 ft | 4 kts | 303° |
| 2026-04-27 14:05 | -25.59672 | -54.48778 | 766 ft | 1 kts | 311° |
| 2026-04-27 14:07 | -25.59672 | -54.48779 | 766 ft | 0 kts | 311° |
| 2026-04-27 14:08 | -25.59667 | -54.48784 | 766 ft | 3 kts | 311° |
| 2026-04-27 14:08 | -25.59639 | -54.48821 | 766 ft | 10 kts | 309° |
| 2026-04-27 14:08 | -25.59587 | -54.48889 | 766 ft | 12 kts | 310° |
| 2026-04-27 14:08 | -25.59519 | -54.48916 | 767 ft | 12 kts | 35° |
| 2026-04-27 14:09 | -25.59449 | -54.48907 | 768 ft | 11 kts | 321° |
| 2026-04-27 14:09 | -25.59394 | -54.48973 | 768 ft | 13 kts | 311° |
| 2026-04-27 14:09 | -25.59323 | -54.49063 | 767 ft | 18 kts | 311° |
| 2026-04-27 14:09 | -25.59232 | -54.49180 | 767 ft | 21 kts | 311° |
| 2026-04-27 14:10 | -25.59140 | -54.49298 | 765 ft | 20 kts | 309° |
| 2026-04-27 14:10 | -25.59054 | -54.49415 | 766 ft | 19 kts | 310° |
| 2026-04-27 14:10 | -25.58958 | -54.49495 | 765 ft | 14 kts | 346° |
| 2026-04-27 14:10 | -25.58929 | -54.49520 | 765 ft | 5 kts | 284° |
| 2026-04-27 14:11 | -25.58952 | -54.49535 | 765 ft | 5 kts | 158° |
| 2026-04-27 14:11 | -25.58959 | -54.49528 | 765 ft | 0 kts | 134° |
| 2026-04-27 14:11 | -25.59106 | -54.49343 | 766 ft | 72 kts | 130° |
| 2026-04-27 14:11 | -25.59591 | -54.48720 | 767 ft | 142 kts | 130° |
| 2026-04-27 14:12 | -25.60372 | -54.47779 | 1073 ft | 176 kts | 135° |
| 2026-04-27 14:12 | -25.61243 | -54.46770 | 1940 ft | 186 kts | 134° |
| 2026-04-27 14:12 | -25.62151 | -54.45606 | 2449 ft | 212 kts | 128° |
| 2026-04-27 14:12 | -25.63108 | -54.44307 | 2996 ft | 221 kts | 128° |
| 2026-04-27 14:13 | -25.64096 | -54.42991 | 3662 ft | 222 kts | 128° |
| 2026-04-27 14:13 | -25.65097 | -54.41675 | 4426 ft | 220 kts | 128° |
| 2026-04-27 14:13 | -25.66025 | -54.40345 | 5004 ft | 226 kts | 116° |
| 2026-04-27 14:13 | -25.66349 | -54.38569 | 5367 ft | 241 kts | 90° |
| 2026-04-27 14:14 | -25.66205 | -54.36683 | 5900 ft | 250 kts | 84° |
| 2026-04-27 14:14 | -25.65955 | -54.34694 | 6260 ft | 271 kts | 83° |
| 2026-04-27 14:14 | -25.65673 | -54.32593 | 6938 ft | 279 kts | 83° |
| 2026-04-27 14:14 | -25.65390 | -54.30474 | 7665 ft | 284 kts | 83° |
| 2026-04-27 14:15 | -25.65106 | -54.28293 | 8400 ft | 288 kts | 82° |
| 2026-04-27 14:15 | -25.64822 | -54.26076 | 9133 ft | 293 kts | 82° |
| 2026-04-27 14:15 | -25.64537 | -54.23814 | 9822 ft | 299 kts | 82° |
| 2026-04-27 14:15 | -25.64248 | -54.21494 | 10410 ft | 310 kts | 82° |
| 2026-04-27 14:16 | -25.63943 | -54.19032 | 10574 ft | 336 kts | 82° |
| 2026-04-27 14:16 | -25.63619 | -54.16401 | 10938 ft | 351 kts | 82° |
| 2026-04-27 14:16 | -25.63285 | -54.13684 | 11492 ft | 360 kts | 82° |
| 2026-04-27 14:16 | -25.62946 | -54.10918 | 12122 ft | 366 kts | 82° |
| 2026-04-27 14:17 | -25.62600 | -54.08096 | 12705 ft | 373 kts | 82° |
| 2026-04-27 14:17 | -25.62246 | -54.05222 | 13320 ft | 379 kts | 82° |
| 2026-04-27 14:17 | -25.61889 | -54.02328 | 14013 ft | 381 kts | 81° |
| 2026-04-27 14:17 | -25.61528 | -53.99397 | 14645 ft | 386 kts | 81° |
| 2026-04-27 14:18 | -25.61163 | -53.96433 | 15216 ft | 392 kts | 81° |
| 2026-04-27 14:18 | -25.60790 | -53.93421 | 15802 ft | 397 kts | 80° |
| 2026-04-27 14:18 | -25.60412 | -53.90370 | 16402 ft | 401 kts | 80° |
| 2026-04-27 14:18 | -25.60029 | -53.87289 | 16951 ft | 406 kts | 80° |
| 2026-04-27 14:19 | -25.59643 | -53.84180 | 17518 ft | 409 kts | 79° |
| 2026-04-27 14:19 | -25.59253 | -53.81039 | 18060 ft | 414 kts | 79° |
| 2026-04-27 14:19 | -25.58857 | -53.77865 | 18597 ft | 418 kts | 79° |
| 2026-04-27 14:19 | -25.58415 | -53.74666 | 19078 ft | 422 kts | 76° |
| 2026-04-27 14:20 | -25.57852 | -53.71453 | 19556 ft | 426 kts | 75° |
| 2026-04-27 14:20 | -25.57242 | -53.68275 | 20059 ft | 429 kts | 74° |
| 2026-04-27 14:20 | -25.56606 | -53.65028 | 20539 ft | 433 kts | 74° |
| 2026-04-27 14:20 | -25.55966 | -53.61748 | 20992 ft | 438 kts | 74° |
| 2026-04-27 14:21 | -25.55327 | -53.58428 | 21409 ft | 443 kts | 74° |
| 2026-04-27 14:21 | -25.54691 | -53.55074 | 21863 ft | 447 kts | 74° |
| 2026-04-27 14:21 | -25.54055 | -53.51693 | 22282 ft | 451 kts | 74° |
| 2026-04-27 14:21 | -25.53415 | -53.48280 | 22667 ft | 455 kts | 74° |
| 2026-04-27 14:22 | -25.52769 | -53.44828 | 23056 ft | 458 kts | 74° |
| 2026-04-27 14:22 | -25.52121 | -53.41366 | 23500 ft | 460 kts | 74° |
| 2026-04-27 14:22 | -25.51468 | -53.37884 | 23895 ft | 463 kts | 74° |
| 2026-04-27 14:22 | -25.50808 | -53.34375 | 24222 ft | 468 kts | 74° |
| 2026-04-27 14:23 | -25.50141 | -53.30836 | 24596 ft | 470 kts | 74° |
| 2026-04-27 14:23 | -25.49472 | -53.27286 | 24995 ft | 472 kts | 74° |
| 2026-04-27 14:23 | -25.48797 | -53.23714 | 25370 ft | 475 kts | 74° |
| 2026-04-27 14:23 | -25.48119 | -53.20128 | 25706 ft | 478 kts | 74° |
| 2026-04-27 14:24 | -25.47434 | -53.16514 | 26045 ft | 481 kts | 74° |
| 2026-04-27 14:24 | -25.46747 | -53.12890 | 26418 ft | 482 kts | 74° |
| 2026-04-27 14:24 | -25.46055 | -53.09247 | 26793 ft | 484 kts | 74° |
| 2026-04-27 14:24 | -25.45361 | -53.05595 | 27129 ft | 486 kts | 74° |
| 2026-04-27 14:25 | -25.44661 | -53.01919 | 27441 ft | 489 kts | 75° |
| 2026-04-27 14:25 | -25.43966 | -52.98277 | 27737 ft | 491 kts | 75° |
| 2026-04-27 14:25 | -25.43257 | -52.94568 | 28049 ft | 493 kts | 75° |
| 2026-04-27 14:25 | -25.42545 | -52.90849 | 28346 ft | 496 kts | 75° |
| 2026-04-27 14:26 | -25.41828 | -52.87111 | 28661 ft | 497 kts | 75° |
| 2026-04-27 14:26 | -25.41108 | -52.83356 | 28979 ft | 499 kts | 75° |
| 2026-04-27 14:26 | -25.40386 | -52.79597 | 29241 ft | 501 kts | 75° |
| 2026-04-27 14:26 | -25.39656 | -52.75805 | 29488 ft | 504 kts | 75° |
| 2026-04-27 14:27 | -25.38925 | -52.72007 | 29753 ft | 506 kts | 75° |
| 2026-04-27 14:27 | -25.38189 | -52.68190 | 30007 ft | 508 kts | 75° |
| 2026-04-27 14:27 | -25.37448 | -52.64354 | 30259 ft | 510 kts | 75° |
| 2026-04-27 14:27 | -25.36705 | -52.60513 | 30533 ft | 512 kts | 75° |
| 2026-04-27 14:28 | -25.35961 | -52.56667 | 30812 ft | 513 kts | 75° |
| 2026-04-27 14:28 | -25.35211 | -52.52801 | 31031 ft | 515 kts | 75° |
| 2026-04-27 14:28 | -25.34465 | -52.48962 | 31260 ft | 517 kts | 75° |
| 2026-04-27 14:28 | -25.33698 | -52.45016 | 31491 ft | 519 kts | 75° |
| 2026-04-27 14:29 | -25.32946 | -52.41158 | 31726 ft | 520 kts | 75° |
| 2026-04-27 14:29 | -25.32182 | -52.37241 | 31952 ft | 521 kts | 75° |
| 2026-04-27 14:29 | -25.31416 | -52.33318 | 32184 ft | 522 kts | 75° |
| 2026-04-27 14:29 | -25.30648 | -52.29389 | 32401 ft | 524 kts | 75° |
| 2026-04-27 14:30 | -25.29875 | -52.25451 | 32602 ft | 525 kts | 74° |
| 2026-04-27 14:30 | -25.29093 | -52.21500 | 32834 ft | 526 kts | 74° |
| 2026-04-27 14:30 | -25.28309 | -52.17556 | 33137 ft | 524 kts | 74° |
| 2026-04-27 14:30 | -25.27526 | -52.13631 | 33452 ft | 523 kts | 74° |
| 2026-04-27 14:31 | -25.26742 | -52.09703 | 33705 ft | 522 kts | 74° |
| 2026-04-27 14:31 | -25.25960 | -52.05789 | 33961 ft | 522 kts | 74° |
| 2026-04-27 14:31 | -25.25179 | -52.01881 | 34224 ft | 521 kts | 74° |
| 2026-04-27 14:31 | -25.24394 | -51.97962 | 34484 ft | 521 kts | 74° |
| 2026-04-27 14:32 | -25.23611 | -51.94054 | 34769 ft | 519 kts | 74° |
| 2026-04-27 14:32 | -25.22834 | -51.90178 | 35077 ft | 516 kts | 73° |
| 2026-04-27 14:32 | -25.22056 | -51.86304 | 35088 ft | 517 kts | 73° |
| 2026-04-27 14:33 | -25.20508 | -51.78613 | 35084 ft | 509 kts | 73° |
| 2026-04-27 14:33 | -25.18975 | -51.71018 | 35106 ft | 505 kts | 73° |
| 2026-04-27 14:34 | -25.17454 | -51.63509 | 35110 ft | 503 kts | 73° |
| 2026-04-27 14:34 | -25.15927 | -51.55993 | 35104 ft | 502 kts | 73° |
| 2026-04-27 14:35 | -25.14390 | -51.48472 | 35106 ft | 501 kts | 73° |
| 2026-04-27 14:35 | -25.12848 | -51.40946 | 35101 ft | 501 kts | 73° |
| 2026-04-27 14:36 | -25.11307 | -51.33442 | 35110 ft | 502 kts | 73° |
| 2026-04-27 14:36 | -25.09760 | -51.25924 | 35104 ft | 503 kts | 73° |
| 2026-04-27 14:37 | -25.08206 | -51.18391 | 35100 ft | 504 kts | 73° |
| 2026-04-27 14:37 | -25.06649 | -51.10860 | 35108 ft | 505 kts | 73° |
| 2026-04-27 14:38 | -25.05083 | -51.03307 | 35112 ft | 505 kts | 73° |
| 2026-04-27 14:38 | -25.03509 | -50.95747 | 35109 ft | 505 kts | 73° |
| 2026-04-27 14:39 | -25.01929 | -50.88196 | 35111 ft | 506 kts | 73° |
| 2026-04-27 14:39 | -25.00357 | -50.80693 | 35108 ft | 505 kts | 73° |
| 2026-04-27 14:40 | -24.98773 | -50.73147 | 35109 ft | 505 kts | 73° |
| 2026-04-27 14:40 | -24.97189 | -50.65623 | 35107 ft | 504 kts | 73° |
| 2026-04-27 14:41 | -24.95608 | -50.58104 | 35109 ft | 502 kts | 73° |
| 2026-04-27 14:41 | -24.94032 | -50.50610 | 35110 ft | 502 kts | 73° |
| 2026-04-27 14:42 | -24.92454 | -50.43125 | 35116 ft | 501 kts | 73° |
| 2026-04-27 14:42 | -24.90875 | -50.35658 | 35105 ft | 500 kts | 73° |
| 2026-04-27 14:43 | -24.89292 | -50.28207 | 35120 ft | 499 kts | 73° |
| 2026-04-27 14:43 | -24.87709 | -50.20816 | 35118 ft | 498 kts | 73° |
| 2026-04-27 14:44 | -24.86114 | -50.13391 | 35124 ft | 498 kts | 73° |
| 2026-04-27 14:44 | -24.84517 | -50.05961 | 35119 ft | 498 kts | 73° |
| 2026-04-27 14:45 | -24.82917 | -49.98540 | 35121 ft | 498 kts | 73° |
| 2026-04-27 14:45 | -24.81315 | -49.91122 | 35121 ft | 497 kts | 73° |
| 2026-04-27 14:46 | -24.79713 | -49.83725 | 35122 ft | 497 kts | 73° |
| 2026-04-27 14:46 | -24.77925 | -49.76387 | 35119 ft | 495 kts | 70° |
| 2026-04-27 14:47 | -24.75966 | -49.69179 | 35118 ft | 494 kts | 69° |
| 2026-04-27 14:47 | -24.74019 | -49.61918 | 35118 ft | 494 kts | 70° |
| 2026-04-27 14:48 | -24.72104 | -49.54649 | 35122 ft | 494 kts | 70° |
| 2026-04-27 14:48 | -24.69236 | -49.43753 | 35126 ft | 494 kts | 70° |
| 2026-04-27 14:49 | -24.67318 | -49.36497 | 35120 ft | 494 kts | 70° |
| 2026-04-27 14:49 | -24.65414 | -49.29232 | 35121 ft | 495 kts | 70° |
| 2026-04-27 14:50 | -24.63510 | -49.21963 | 35119 ft | 495 kts | 70° |
| 2026-04-27 14:50 | -24.61591 | -49.14680 | 35121 ft | 495 kts | 70° |
| 2026-04-27 14:51 | -24.59973 | -49.08647 | 35106 ft | 495 kts | 69° |
| 2026-04-27 14:51 | -24.58017 | -49.01398 | 35100 ft | 495 kts | 69° |
| 2026-04-27 14:52 | -24.56072 | -48.94190 | 35098 ft | 494 kts | 69° |
| 2026-04-27 14:52 | -24.54115 | -48.86940 | 35103 ft | 494 kts | 69° |
| 2026-04-27 14:53 | -24.52160 | -48.79708 | 35080 ft | 494 kts | 69° |
| 2026-04-27 14:53 | -24.50204 | -48.72484 | 35085 ft | 493 kts | 69° |
| 2026-04-27 14:54 | -24.48258 | -48.65288 | 35108 ft | 491 kts | 69° |
| 2026-04-27 14:54 | -24.46324 | -48.58148 | 35103 ft | 491 kts | 69° |
| 2026-04-27 14:55 | -24.44376 | -48.50970 | 35105 ft | 490 kts | 69° |
| 2026-04-27 14:55 | -24.42424 | -48.43796 | 35105 ft | 490 kts | 69° |
| 2026-04-27 14:56 | -24.40477 | -48.36650 | 35106 ft | 489 kts | 69° |
| 2026-04-27 14:56 | -24.38525 | -48.29503 | 35103 ft | 489 kts | 69° |
| 2026-04-27 14:57 | -24.36570 | -48.22359 | 35107 ft | 489 kts | 69° |
| 2026-04-27 14:57 | -24.34594 | -48.15231 | 35111 ft | 487 kts | 67° |
| 2026-04-27 14:58 | -24.32248 | -48.08280 | 35117 ft | 485 kts | 64° |
| 2026-04-27 14:58 | -24.29756 | -48.01403 | 35121 ft | 485 kts | 64° |
| 2026-04-27 14:59 | -24.27296 | -47.94576 | 35121 ft | 485 kts | 64° |
| 2026-04-27 14:59 | -24.24846 | -47.87685 | 35121 ft | 485 kts | 64° |
| 2026-04-27 15:00 | -24.22408 | -47.80793 | 35120 ft | 485 kts | 64° |
| 2026-04-27 15:00 | -24.19969 | -47.73902 | 35124 ft | 485 kts | 64° |
| 2026-04-27 15:01 | -24.17523 | -47.67010 | 35119 ft | 485 kts | 64° |
| 2026-04-27 15:01 | -24.15070 | -47.60112 | 35119 ft | 485 kts | 64° |
| 2026-04-27 15:02 | -24.12634 | -47.53273 | 35120 ft | 485 kts | 64° |
| 2026-04-27 15:02 | -24.10178 | -47.46391 | 35123 ft | 485 kts | 64° |
| 2026-04-27 15:03 | -24.07715 | -47.39499 | 35121 ft | 485 kts | 64° |
| 2026-04-27 15:03 | -24.05256 | -47.32630 | 35129 ft | 484 kts | 64° |
| 2026-04-27 15:04 | -24.02791 | -47.25756 | 35109 ft | 486 kts | 64° |
| 2026-04-27 15:04 | -24.00318 | -47.18872 | 35111 ft | 486 kts | 64° |
| 2026-04-27 15:05 | -23.97838 | -47.11979 | 35107 ft | 487 kts | 64° |
| 2026-04-27 15:05 | -23.95358 | -47.05094 | 35098 ft | 486 kts | 64° |
| 2026-04-27 15:06 | -23.93096 | -46.98825 | 35101 ft | 485 kts | 64° |
| 2026-04-27 15:06 | -23.90634 | -46.92010 | 35095 ft | 485 kts | 64° |
| 2026-04-27 15:07 | -23.88140 | -46.85122 | 35069 ft | 484 kts | 64° |
| 2026-04-27 15:07 | -23.85660 | -46.78285 | 35071 ft | 484 kts | 64° |
| 2026-04-27 15:08 | -23.83183 | -46.71462 | 35071 ft | 483 kts | 64° |
| 2026-04-27 15:08 | -23.80809 | -46.64935 | 35077 ft | 482 kts | 64° |
| 2026-04-27 15:09 | -23.78383 | -46.58278 | 35070 ft | 482 kts | 64° |
| 2026-04-27 15:09 | -23.75900 | -46.51473 | 35079 ft | 482 kts | 64° |
| 2026-04-27 15:10 | -23.73415 | -46.44672 | 35066 ft | 482 kts | 63° |
| 2026-04-27 15:10 | -23.70923 | -46.37867 | 35057 ft | 483 kts | 63° |
| 2026-04-27 15:11 | -23.68427 | -46.31057 | 35045 ft | 484 kts | 63° |
| 2026-04-27 15:11 | -23.65924 | -46.24239 | 35029 ft | 485 kts | 63° |
| 2026-04-27 15:12 | -23.63411 | -46.17407 | 35027 ft | 485 kts | 63° |
| 2026-04-27 15:12 | -23.60895 | -46.10575 | 35034 ft | 485 kts | 63° |
| 2026-04-27 15:13 | -23.58389 | -46.03783 | 35045 ft | 486 kts | 63° |
| 2026-04-27 15:13 | -23.55848 | -45.96906 | 35032 ft | 486 kts | 63° |
| 2026-04-27 15:14 | -23.53318 | -45.90067 | 35040 ft | 486 kts | 63° |
| 2026-04-27 15:14 | -23.50784 | -45.83230 | 35038 ft | 486 kts | 63° |
| 2026-04-27 15:15 | -23.48247 | -45.76396 | 35026 ft | 486 kts | 63° |
| 2026-04-27 15:15 | -23.45711 | -45.69574 | 35035 ft | 485 kts | 63° |
| 2026-04-27 15:16 | -23.43181 | -45.62777 | 35040 ft | 484 kts | 63° |
| 2026-04-27 15:16 | -23.40650 | -45.55990 | 35032 ft | 483 kts | 63° |
| 2026-04-27 15:17 | -23.38327 | -45.49112 | 35022 ft | 488 kts | 72° |
| 2026-04-27 15:17 | -23.36827 | -45.41839 | 35027 ft | 497 kts | 74° |
| 2026-04-27 15:18 | -23.35334 | -45.34525 | 34776 ft | 502 kts | 73° |
| 2026-04-27 15:18 | -23.34535 | -45.30795 | 34188 ft | 506 kts | 73° |
| 2026-04-27 15:18 | -23.33730 | -45.27072 | 33543 ft | 505 kts | 73° |
| 2026-04-27 15:19 | -23.32927 | -45.23353 | 32870 ft | 505 kts | 73° |
| 2026-04-27 15:19 | -23.32123 | -45.19632 | 32170 ft | 505 kts | 73° |
| 2026-04-27 15:19 | -23.31322 | -45.15917 | 31608 ft | 503 kts | 73° |
| 2026-04-27 15:19 | -23.30528 | -45.12236 | 31106 ft | 498 kts | 73° |
| 2026-04-27 15:20 | -23.29740 | -45.08583 | 30603 ft | 494 kts | 73° |
| 2026-04-27 15:20 | -23.28956 | -45.04958 | 30118 ft | 490 kts | 73° |
| 2026-04-27 15:20 | -23.28179 | -45.01367 | 29620 ft | 486 kts | 73° |
| 2026-04-27 15:20 | -23.27407 | -44.97804 | 29118 ft | 482 kts | 73° |
| 2026-04-27 15:21 | -23.26639 | -44.94269 | 28597 ft | 478 kts | 73° |
| 2026-04-27 15:21 | -23.25878 | -44.90769 | 28127 ft | 474 kts | 73° |
| 2026-04-27 15:21 | -23.25111 | -44.87248 | 27609 ft | 471 kts | 73° |
| 2026-04-27 15:21 | -23.24369 | -44.83844 | 27119 ft | 467 kts | 73° |
| 2026-04-27 15:22 | -23.23622 | -44.80418 | 26633 ft | 464 kts | 73° |
| 2026-04-27 15:22 | -23.22877 | -44.77010 | 26140 ft | 461 kts | 73° |
| 2026-04-27 15:22 | -23.22138 | -44.73628 | 25649 ft | 458 kts | 73° |
| 2026-04-27 15:22 | -23.21402 | -44.70264 | 25162 ft | 455 kts | 73° |
| 2026-04-27 15:23 | -23.20671 | -44.66927 | 24682 ft | 452 kts | 73° |
| 2026-04-27 15:23 | -23.19945 | -44.63617 | 24212 ft | 449 kts | 73° |
| 2026-04-27 15:23 | -23.19231 | -44.60315 | 23702 ft | 447 kts | 74° |
| 2026-04-27 15:23 | -23.18542 | -44.57025 | 23212 ft | 445 kts | 73° |
| 2026-04-27 15:24 | -23.17639 | -44.53839 | 22721 ft | 438 kts | 64° |
| 2026-04-27 15:24 | -23.16377 | -44.50843 | 22265 ft | 433 kts | 61° |
| 2026-04-27 15:24 | -23.15059 | -44.47916 | 21781 ft | 430 kts | 60° |
| 2026-04-27 15:24 | -23.13735 | -44.45013 | 21312 ft | 427 kts | 60° |
| 2026-04-27 15:25 | -23.12429 | -44.42135 | 20853 ft | 424 kts | 61° |
| 2026-04-27 15:25 | -23.11137 | -44.39264 | 20388 ft | 420 kts | 61° |
| 2026-04-27 15:25 | -23.09866 | -44.36415 | 19922 ft | 418 kts | 62° |
| 2026-04-27 15:25 | -23.08609 | -44.33586 | 19464 ft | 415 kts | 62° |
| 2026-04-27 15:26 | -23.07364 | -44.30774 | 19006 ft | 411 kts | 62° |
| 2026-04-27 15:26 | -23.06130 | -44.27986 | 18547 ft | 408 kts | 62° |
| 2026-04-27 15:26 | -23.04903 | -44.25216 | 18100 ft | 405 kts | 62° |
| 2026-04-27 15:26 | -23.03682 | -44.22459 | 17653 ft | 403 kts | 62° |
| 2026-04-27 15:27 | -23.02470 | -44.19726 | 17197 ft | 401 kts | 62° |
| 2026-04-27 15:27 | -23.01280 | -44.17044 | 16755 ft | 398 kts | 62° |
| 2026-04-27 15:27 | -23.00083 | -44.14348 | 16312 ft | 395 kts | 62° |
| 2026-04-27 15:27 | -22.98893 | -44.11670 | 15856 ft | 392 kts | 62° |
| 2026-04-27 15:28 | -22.97714 | -44.09018 | 15415 ft | 388 kts | 62° |
| 2026-04-27 15:28 | -22.96547 | -44.06392 | 14987 ft | 385 kts | 62° |
| 2026-04-27 15:28 | -22.95388 | -44.03786 | 14547 ft | 382 kts | 62° |
| 2026-04-27 15:28 | -22.94239 | -44.01205 | 14107 ft | 379 kts | 63° |
| 2026-04-27 15:29 | -22.93096 | -43.98641 | 13688 ft | 376 kts | 62° |
| 2026-04-27 15:29 | -22.91963 | -43.96101 | 13250 ft | 373 kts | 62° |
| 2026-04-27 15:29 | -22.90842 | -43.93583 | 12838 ft | 367 kts | 62° |
| 2026-04-27 15:29 | -22.89749 | -43.91130 | 12412 ft | 355 kts | 62° |
| 2026-04-27 15:30 | -22.88694 | -43.88763 | 12011 ft | 344 kts | 62° |
| 2026-04-27 15:30 | -22.87667 | -43.86458 | 11637 ft | 337 kts | 62° |
| 2026-04-27 15:30 | -22.86647 | -43.84177 | 11244 ft | 336 kts | 62° |
| 2026-04-27 15:30 | -22.85634 | -43.81909 | 10865 ft | 335 kts | 62° |
| 2026-04-27 15:31 | -22.84619 | -43.79638 | 10571 ft | 331 kts | 62° |
| 2026-04-27 15:31 | -22.83630 | -43.77424 | 10429 ft | 322 kts | 63° |
| 2026-04-27 15:31 | -22.82666 | -43.75269 | 10272 ft | 314 kts | 63° |
| 2026-04-27 15:31 | -22.81726 | -43.73168 | 10136 ft | 306 kts | 63° |
| 2026-04-27 15:32 | -22.81126 | -43.71798 | 10050 ft | 302 kts | 65° |
| 2026-04-27 15:32 | -22.80335 | -43.68923 | 9822 ft | 295 kts | 76° |
| 2026-04-27 15:32 | -22.80032 | -43.67487 | 9616 ft | 295 kts | 76° |
| 2026-04-27 15:32 | -22.79569 | -43.65326 | 9327 ft | 294 kts | 75° |
| 2026-04-27 15:33 | -22.79088 | -43.63175 | 9049 ft | 293 kts | 75° |
| 2026-04-27 15:33 | -22.78593 | -43.61066 | 8741 ft | 288 kts | 74° |
| 2026-04-27 15:33 | -22.78091 | -43.59036 | 8643 ft | 268 kts | 73° |
| 2026-04-27 15:33 | -22.76987 | -43.56793 | 8298 ft | 248 kts | 43° |
| 2026-04-27 15:34 | -22.76107 | -43.56012 | 8139 ft | 238 kts | 28° |
| 2026-04-27 15:34 | -22.74637 | -43.55320 | 7887 ft | 225 kts | 15° |
| 2026-04-27 15:34 | -22.73192 | -43.54838 | 7673 ft | 216 kts | 15° |
| 2026-04-27 15:34 | -22.71780 | -43.54330 | 7450 ft | 213 kts | 17° |
| 2026-04-27 15:35 | -22.70396 | -43.53749 | 7211 ft | 212 kts | 21° |
| 2026-04-27 15:35 | -22.69077 | -43.53093 | 6957 ft | 205 kts | 26° |
| 2026-04-27 15:35 | -22.68035 | -43.52078 | 6697 ft | 200 kts | 52° |
| 2026-04-27 15:35 | -22.67383 | -43.50745 | 6344 ft | 204 kts | 70° |
| 2026-04-27 15:36 | -22.67154 | -43.49227 | 5930 ft | 206 kts | 89° |
| 2026-04-27 15:36 | -22.67358 | -43.47691 | 5489 ft | 210 kts | 112° |
| 2026-04-27 15:36 | -22.68066 | -43.46294 | 5017 ft | 215 kts | 120° |
| 2026-04-27 15:36 | -22.68872 | -43.44897 | 4526 ft | 222 kts | 123° |
| 2026-04-27 15:37 | -22.69763 | -43.43504 | 3987 ft | 226 kts | 124° |
| 2026-04-27 15:37 | -22.70673 | -43.42137 | 3568 ft | 221 kts | 125° |
| 2026-04-27 15:37 | -22.71560 | -43.40816 | 3234 ft | 211 kts | 125° |
| 2026-04-27 15:37 | -22.72399 | -43.39561 | 3009 ft | 203 kts | 124° |
| 2026-04-27 15:38 | -22.73220 | -43.38335 | 2757 ft | 195 kts | 124° |
| 2026-04-27 15:38 | -22.74006 | -43.37159 | 2466 ft | 191 kts | 124° |
| 2026-04-27 15:38 | -22.74744 | -43.36022 | 2184 ft | 177 kts | 125° |
| 2026-04-27 15:38 | -22.75461 | -43.34972 | 1981 ft | 175 kts | 126° |
| 2026-04-27 15:39 | -22.76160 | -43.33941 | 1750 ft | 164 kts | 127° |
| 2026-04-27 15:39 | -22.76817 | -43.32957 | 1544 ft | 160 kts | 126° |
| 2026-04-27 15:39 | -22.77459 | -43.31999 | 1309 ft | 155 kts | 126° |
| 2026-04-27 15:39 | -22.78105 | -43.31028 | 1142 ft | 164 kts | 125° |
| 2026-04-27 15:40 | -22.78781 | -43.30018 | 910 ft | 166 kts | 125° |
| 2026-04-27 15:40 | -22.79474 | -43.29033 | 677 ft | 163 kts | 126° |
| 2026-04-27 15:40 | -22.80139 | -43.28040 | 453 ft | 161 kts | 124° |
| 2026-04-27 15:40 | -22.80786 | -43.27050 | 215 ft | 161 kts | 125° |
| 2026-04-27 15:41 | -22.81436 | -43.26071 | 39 ft | 159 kts | 125° |
| 2026-04-27 15:41 | -22.82018 | -43.25198 | 28 ft | 116 kts | 126° |
| 2026-04-27 15:41 | -22.82328 | -43.24730 | 29 ft | 19 kts | 122° |
| 2026-04-27 15:41 | -22.82355 | -43.24601 | 27 ft | 17 kts | 95° |
| 2026-04-27 15:42 | -22.82364 | -43.24477 | 27 ft | 15 kts | 85° |
| 2026-04-27 15:42 | -22.82318 | -43.24473 | 28 ft | 9 kts | 308° |
| 2026-04-27 15:42 | -22.82279 | -43.24530 | 28 ft | 10 kts | 306° |
| 2026-04-27 15:42 | -22.82228 | -43.24607 | 30 ft | 15 kts | 306° |
| 2026-04-27 15:43 | -22.82157 | -43.24713 | 29 ft | 18 kts | 313° |
| 2026-04-27 15:43 | -22.82052 | -43.24687 | 29 ft | 17 kts | 35° |
| 2026-04-27 15:43 | -22.81957 | -43.24616 | 27 ft | 16 kts | 32° |
| 2026-04-27 15:43 | -22.81852 | -43.24584 | 25 ft | 15 kts | 34° |
| 2026-04-27 15:44 | -22.81770 | -43.24561 | 25 ft | 12 kts | 347° |
| 2026-04-27 15:44 | -22.81685 | -43.24567 | 25 ft | 12 kts | 357° |
| 2026-04-27 15:44 | -22.81619 | -43.24571 | 25 ft | 0 kts | 356° |